Time;durP1;ratioP1;P1;durP2;ratioP2;P2;SDS_P1;SDS_P2;PMS_P1;PMS_P2;Temp;Humidity;BMP_temperature;BMP_pressure;BME280_temperature;BME280_humidity;BME280_pressure;Samples;Min_cycle;Max_cycle;Signal;HPM_P1;HPM_P2
2023/11/18 00:00:34;;;;;;;4.13;3.40;;;6.10;99.90;;;7.00;100.00;98907.59;5016466;28;20462;-81
2023/11/18 00:03:03;;;;;;;8.20;4.17;;;6.20;99.90;;;7.00;100.00;98912.78;5019508;28;21200;-80
2023/11/18 00:05:32;;;;;;;5.07;3.50;;;6.20;99.90;;;6.96;100.00;98914.03;5014854;28;20541;-80
2023/11/18 00:08:02;;;;;;;7.00;3.57;;;6.20;99.90;;;6.96;100.00;98914.03;5017921;28;20470;-81
2023/11/18 00:10:31;;;;;;;6.40;3.90;;;6.10;99.90;;;6.92;100.00;98920.47;5016316;28;20877;-80
2023/11/18 00:13:01;;;;;;;4.20;3.33;;;6.10;99.90;;;6.91;100.00;98913.63;5015195;28;20468;-81
2023/11/18 00:15:30;;;;;;;4.90;3.43;;;6.10;99.90;;;6.89;100.00;98907.75;5016849;28;20471;-80
2023/11/18 00:17:58;;;;;;;6.73;3.77;;;6.10;99.90;;;6.89;100.00;98905.97;5017455;28;20466;-80
2023/11/18 00:20:27;;;;;;;4.17;3.43;;;6.10;99.90;;;6.91;100.00;98898.84;5018748;28;20901;-81
2023/11/18 00:22:56;;;;;;;5.30;3.70;;;6.10;99.90;;;6.97;100.00;98897.47;5019013;28;21368;-80
2023/11/18 00:25:25;;;;;;;5.27;3.67;;;6.10;99.90;;;6.98;100.00;98897.31;5018056;28;20524;-81
2023/11/18 00:27:54;;;;;;;4.20;3.50;;;6.20;99.90;;;7.01;100.00;98898.81;5016336;28;20512;-81
2023/11/18 00:30:23;;;;;;;8.97;4.07;;;6.10;99.90;;;7.00;100.00;98895.41;5016811;28;20467;-81
2023/11/18 00:32:52;;;;;;;5.10;3.87;;;6.20;99.90;;;6.99;100.00;98895.53;5016752;28;20902;-80
2023/11/18 00:35:21;;;;;;;3.90;3.00;;;6.20;99.90;;;7.01;100.00;98901.44;5016798;28;20469;-80
2023/11/18 00:37:49;;;;;;;4.27;2.90;;;6.20;99.90;;;7.00;100.00;98904.97;5017334;28;20458;-80
2023/11/18 00:40:18;;;;;;;4.33;3.20;;;6.20;99.90;;;7.00;100.00;98904.97;5016332;28;20513;-80
2023/11/18 00:42:48;;;;;;;3.40;2.77;;;6.20;99.90;;;7.03;100.00;98909.88;5015512;28;20469;-80
2023/11/18 00:45:18;;;;;;;6.77;3.60;;;6.20;99.90;;;7.04;100.00;98901.13;5014697;28;20462;-81
2023/11/18 00:47:46;;;;;;;5.47;2.90;;;6.20;99.90;;;7.04;100.00;98901.97;5016432;28;20489;-81
2023/11/18 00:50:15;;;;;;;9.40;3.27;;;6.20;99.90;;;7.04;100.00;98907.16;5014444;28;20466;-80
2023/11/18 00:52:44;;;;;;;5.50;3.93;;;6.30;99.90;;;7.07;100.00;98904.28;5017650;28;20462;-80
2023/11/18 00:55:12;;;;;;;7.10;3.67;;;6.20;99.90;;;7.06;100.00;98899.19;5017323;28;20467;-81
2023/11/18 00:57:41;;;;;;;6.80;4.40;;;6.20;99.90;;;7.06;100.00;98900.03;5017290;28;20466;-80
2023/11/18 01:00:15;;;;;;;7.57;4.97;;;6.20;99.90;;;7.07;100.00;98900.84;5017419;28;20470;-80
2023/11/18 01:02:46;;;;;;;6.53;4.57;;;6.20;99.90;;;7.09;100.00;98893.72;5015562;28;20846;-80
2023/11/18 01:05:15;;;;;;;4.83;3.80;;;6.20;99.90;;;7.05;100.00;98887.97;5016215;28;20475;-80
2023/11/18 01:07:44;;;;;;;7.03;4.70;;;6.20;99.90;;;7.04;100.00;98890.75;5015831;28;20495;-81
2023/11/18 01:10:13;;;;;;;9.47;5.27;;;6.20;99.90;;;6.99;100.00;98890.34;5017207;28;20470;-81
2023/11/18 01:12:44;;;;;;;7.80;4.37;;;6.20;99.90;;;7.00;100.00;98884.19;5015532;28;20553;-80
2023/11/18 01:15:14;;;;;;;5.63;4.40;;;6.20;99.90;;;7.03;100.00;98879.50;5015611;28;20451;-80
2023/11/18 01:17:43;;;;;;;8.40;5.27;;;6.20;99.90;;;7.05;100.00;98887.97;5016579;28;20828;-81
2023/11/18 01:20:13;;;;;;;7.87;5.37;;;6.20;99.90;;;7.05;100.00;98887.16;5016115;28;20530;-80
2023/11/18 01:22:45;;;;;;;8.43;4.97;;;6.20;99.90;;;7.02;100.00;98887.44;5017583;28;20512;-80
2023/11/18 01:25:15;;;;;;;8.80;4.63;;;6.20;99.90;;;7.03;100.00;98897.72;5017157;28;20545;-80
2023/11/18 01:27:46;;;;;;;6.20;4.90;;;6.20;99.90;;;7.05;100.00;98900.16;5015350;28;20498;-79
2023/11/18 01:30:16;;;;;;;8.70;6.27;;;6.20;99.90;;;7.05;100.00;98906.19;5016523;28;20561;-81
2023/11/18 01:32:46;;;;;;;10.70;5.37;;;6.20;99.90;;;7.04;100.00;98904.56;5015592;28;20978;-80
2023/11/18 01:35:15;;;;;;;11.40;6.27;;;6.30;99.90;;;7.02;100.00;98903.03;5017031;28;20458;-80
2023/11/18 01:37:43;;;;;;;7.27;5.13;;;6.20;99.90;;;7.00;100.00;98898.00;5015696;28;20467;-81
2023/11/18 01:40:15;;;;;;;13.40;5.73;;;6.20;99.90;;;6.99;100.00;98900.72;5015705;28;20462;-80
2023/11/18 01:42:46;;;;;;;9.73;5.53;;;6.20;99.90;;;6.99;100.00;98911.97;5014148;28;20462;-80
2023/11/18 01:45:17;;;;;;;9.80;6.10;;;6.20;99.90;;;6.99;100.00;98911.97;5014640;28;21038;-80
2023/11/18 01:47:48;;;;;;;10.17;5.77;;;6.30;99.90;;;6.99;100.00;98913.72;5016442;28;21019;-81
2023/11/18 01:50:18;;;;;;;8.77;5.13;;;6.20;99.90;;;6.95;100.00;98913.19;5016983;28;21317;-80
2023/11/18 01:52:49;;;;;;;13.07;6.53;;;6.20;99.90;;;6.97;100.00;98911.28;5014957;28;20547;-81
2023/11/18 01:55:18;;;;;;;11.83;6.47;;;6.10;99.90;;;6.98;100.00;98912.09;5015805;28;20715;-80
2023/11/18 01:57:46;;;;;;;13.97;7.23;;;6.10;99.90;;;6.92;100.00;98892.69;5015993;28;21159;-80
2023/11/18 02:00:17;;;;;;;11.97;7.07;;;6.20;99.90;;;6.95;100.00;98907.19;5015376;28;20462;-81
2023/11/18 02:02:46;;;;;;;9.63;6.73;;;6.10;99.90;;;6.92;100.00;98904.88;5016428;28;20470;-80
2023/11/18 02:05:16;;;;;;;13.90;6.67;;;6.10;99.90;;;6.91;100.00;98898.03;5015260;28;20465;-80
2023/11/18 02:07:46;;;;;;;11.13;5.97;;;6.10;99.90;;;6.87;100.00;98900.09;5016974;28;20490;-80
2023/11/18 02:10:17;;;;;;;9.77;5.77;;;6.00;99.90;;;6.83;100.00;98897.94;5014959;28;21087;-81
2023/11/18 02:12:58;;;;;;;8.70;5.20;;;6.00;99.90;;;6.84;100.00;98891.75;5014107;28;20463;-80
2023/11/18 02:15:33;;;;;;;8.33;5.80;;;6.10;99.90;;;6.84;100.00;98892.56;5014536;28;20462;-80
2023/11/18 02:18:09;;;;;;;11.13;5.90;;;6.10;99.90;;;6.88;100.00;98900.91;5015745;28;20815;-80
2023/11/18 02:20:40;;;;;;;10.53;6.50;;;6.10;99.90;;;6.85;100.00;98902.03;5014318;28;21104;-81
2023/11/18 02:23:09;;;;;;;10.50;5.50;;;6.10;99.90;;;6.83;100.00;98893.56;5015441;28;20968;-81
2023/11/18 02:25:46;;;;;;;10.30;5.77;;;6.00;99.90;;;6.81;100.00;98892.03;5014953;28;20871;-81
2023/11/18 02:28:14;;;;;;;9.57;5.17;;;6.00;99.90;;;6.81;100.00;98892.88;5015537;28;21068;-80
2023/11/18 02:30:45;;;;;;;13.60;6.37;;;6.00;99.90;;;6.84;100.00;98889.16;5013605;28;20462;-80
2023/11/18 02:33:23;;;;;;;10.67;5.23;;;6.10;99.90;;;6.83;100.00;98882.34;5014827;28;20454;-81
2023/11/18 02:35:57;;;;;;;8.30;5.20;;;6.00;99.90;;;6.82;100.00;98893.69;5015083;28;20458;-80
2023/11/18 02:38:32;;;;;;;14.10;5.50;;;6.00;99.90;;;6.83;100.00;98888.34;5013802;28;20512;-81
2023/11/18 02:41:13;;;;;;;15.63;4.83;;;5.90;99.90;;;6.85;100.00;98888.19;5014214;28;20462;-81
2023/11/18 02:43:44;;;;;;;11.40;6.50;;;6.00;99.90;;;6.83;100.00;98896.16;5016268;28;20466;-80
2023/11/18 02:46:14;;;;;;;8.30;5.30;;;5.90;99.90;;;6.80;100.00;98899.03;5011865;28;20478;-80
2023/11/18 02:48:43;;;;;;;12.90;4.90;;;5.90;99.90;;;6.80;100.00;98898.22;5014433;28;20516;-80
2023/11/18 02:51:12;;;;;;;10.60;4.70;;;5.90;99.90;;;6.81;100.00;98899.84;5014025;28;20481;-80
2023/11/18 02:53:44;;;;;;;9.93;5.00;;;5.90;99.90;;;6.84;100.00;98902.16;5014943;28;20492;-80
2023/11/18 02:56:15;;;;;;;9.23;5.50;;;6.00;99.90;;;6.86;100.00;98903.66;5015646;28;20505;-80
2023/11/18 02:58:43;;;;;;;12.23;5.30;;;6.00;99.90;;;6.83;100.00;98909.16;5014702;28;21092;-81
2023/11/18 03:01:13;;;;;;;6.90;5.10;;;6.00;99.90;;;6.84;100.00;98912.53;5013348;28;20463;-81
2023/11/18 03:03:42;;;;;;;8.00;5.63;;;6.00;99.90;;;6.83;100.00;98914.34;5015033;28;20478;-80
2023/11/18 03:06:11;;;;;;;7.60;4.93;;;6.00;99.90;;;6.84;100.00;98909.94;5014395;28;20454;-81
2023/11/18 03:08:41;;;;;;;7.57;4.40;;;6.00;99.90;;;6.85;100.00;98914.19;5014401;28;21039;-80
2023/11/18 03:11:10;;;;;;;8.37;5.97;;;6.10;99.90;;;6.87;100.00;98894.88;5014897;28;20525;-80
2023/11/18 03:13:40;;;;;;;7.57;4.93;;;6.10;99.90;;;6.88;100.00;98900.91;5015173;28;20471;-82
2023/11/18 03:16:11;;;;;;;8.67;5.50;;;6.10;99.90;;;6.91;100.00;98895.41;5012804;28;20551;-81
2023/11/18 03:18:40;;;;;;;6.83;4.93;;;6.10;99.90;;;6.90;100.00;98899.00;5013817;28;20548;-81
2023/11/18 03:21:13;;;;;;;7.13;4.30;;;6.20;99.90;;;6.95;100.00;98899.38;5014614;28;21039;-81
2023/11/18 03:23:42;;;;;;;9.73;5.10;;;6.20;99.90;;;6.94;100.00;98895.94;5015526;28;20914;-80
2023/11/18 03:26:11;;;;;;;10.67;4.70;;;6.20;99.90;;;6.92;100.00;98897.88;5014282;28;20881;-81
2023/11/18 03:28:41;;;;;;;8.40;4.70;;;6.30;99.90;;;6.87;100.00;98900.09;5011743;28;20557;-81
2023/11/18 03:31:12;;;;;;;7.77;4.90;;;6.10;99.90;;;6.86;100.00;98905.44;5013309;28;20524;-81
2023/11/18 03:33:40;;;;;;;9.23;5.07;;;6.20;99.90;;;6.89;100.00;98918.16;5013713;28;20469;-80
2023/11/18 03:36:12;;;;;;;6.07;4.50;;;6.20;99.90;;;6.88;100.00;98914.72;5016303;28;20497;-80
2023/11/18 03:38:41;;;;;;;8.77;4.40;;;6.10;99.90;;;6.92;100.00;98916.09;5015253;28;20459;-80
2023/11/18 03:41:09;;;;;;;5.80;4.13;;;6.10;99.90;;;6.97;100.00;98915.66;5015459;28;20458;-81
2023/11/18 03:43:40;;;;;;;8.17;5.27;;;6.30;99.90;;;6.93;100.00;98914.31;5014711;28;21056;-81
2023/11/18 03:46:10;;;;;;;12.23;4.57;;;6.30;99.90;;;6.96;100.00;98919.22;5012564;28;20473;-80
2023/11/18 03:48:39;;;;;;;17.93;5.33;;;6.30;99.90;;;6.97;100.00;98905.28;5013834;28;20559;-80
2023/11/18 03:51:07;;;;;;;13.87;4.93;;;6.40;99.90;;;6.96;100.00;98903.63;5013374;28;20466;-81
2023/11/18 03:53:36;;;;;;;6.37;4.60;;;6.40;99.90;;;6.92;100.00;98902.25;5013289;28;20465;-80
2023/11/18 03:56:06;;;;;;;8.67;4.00;;;6.30;99.90;;;6.91;100.00;98906.63;5013293;28;20536;-81
2023/11/18 03:58:34;;;;;;;5.43;3.90;;;6.30;99.90;;;6.93;100.00;98893.50;5010856;28;21077;-80
2023/11/18 04:01:06;;;;;;;6.53;4.67;;;6.30;99.90;;;6.96;100.00;98894.03;5011627;28;20477;-80
2023/11/18 04:03:35;;;;;;;10.07;4.80;;;6.20;99.90;;;6.98;100.00;98893.88;5014542;28;20458;-80
2023/11/18 04:06:04;;;;;;;7.30;4.20;;;6.30;99.90;;;6.96;100.00;98898.44;5014669;28;20501;-81
2023/11/18 04:08:34;;;;;;;9.73;5.30;;;6.30;99.90;;;6.97;100.00;98894.88;5008379;28;20486;-78
2023/11/18 04:11:04;;;;;;;7.90;4.90;;;6.30;99.90;;;6.97;100.00;98894.88;5013989;28;20454;-80
2023/11/18 04:13:32;;;;;;;7.97;4.30;;;6.30;99.90;;;6.95;100.00;98900.19;5013982;28;20462;-80
2023/11/18 04:16:00;;;;;;;6.97;4.23;;;6.40;99.90;;;6.98;100.00;98896.47;5016867;28;20501;-80
2023/11/18 04:18:30;;;;;;;7.13;4.30;;;6.30;99.90;;;7.03;100.00;98896.88;5014015;28;21001;-79
2023/11/18 04:20:59;;;;;;;8.67;4.20;;;6.30;99.90;;;7.01;100.00;98883.22;5014990;28;20461;-78
2023/11/18 04:23:27;;;;;;;9.87;6.10;;;6.30;99.90;;;7.04;100.00;98877.72;5016304;28;20473;-81
2023/11/18 04:25:56;;;;;;;7.70;4.47;;;6.20;99.90;;;6.99;100.00;98877.34;5014240;28;20470;-80
2023/11/18 04:28:26;;;;;;;18.33;4.17;;;6.10;99.90;;;6.98;100.00;98876.50;5015075;28;20499;-80
2023/11/18 04:30:55;;;;;;;9.30;5.13;;;6.30;99.90;;;6.95;100.00;98879.41;5013374;28;20501;-80
2023/11/18 04:33:24;;;;;;;8.30;4.57;;;6.30;99.90;;;6.92;100.00;98887.50;5017112;28;20472;-79
2023/11/18 04:35:56;;;;;;;9.23;4.50;;;6.20;99.90;;;6.92;100.00;98873.66;5013998;28;20812;-80
2023/11/18 04:38:26;;;;;;;10.63;4.33;;;6.20;99.90;;;6.95;100.00;98883.78;5014717;28;20474;-80
2023/11/18 04:40:55;;;;;;;5.47;3.70;;;6.20;99.90;;;6.96;100.00;98888.03;5016413;28;20455;-80
2023/11/18 04:43:24;;;;;;;7.60;4.47;;;6.30;99.90;;;6.95;100.00;98888.97;5016731;28;20466;-76
2023/11/18 04:46:07;;;;;;;13.13;6.43;;;6.20;99.90;;;6.98;100.00;98891.28;5015049;28;20462;-81
2023/11/18 04:48:36;;;;;;;6.43;4.07;;;6.20;99.90;;;6.97;100.00;98887.06;5018688;28;20997;-80
2023/11/18 04:51:11;;;;;;;7.57;3.90;;;6.20;99.90;;;6.96;100.00;98886.25;5018417;28;20466;-80
2023/11/18 04:53:40;;;;;;;6.83;4.13;;;6.20;99.90;;;6.97;100.00;98894.88;5017155;28;20499;-80
2023/11/18 04:56:10;;;;;;;6.57;3.70;;;6.10;99.90;;;6.99;100.00;98893.75;5017950;28;21181;-79
2023/11/18 04:58:40;;;;;;;6.13;3.40;;;6.20;99.90;;;6.99;100.00;98893.75;5018796;28;20473;-80
2023/11/18 05:01:09;;;;;;;9.70;3.90;;;6.30;99.90;;;7.01;100.00;98897.03;5017689;28;20467;-80
2023/11/18 05:03:37;;;;;;;9.93;4.47;;;6.20;99.90;;;7.03;100.00;98889.09;5014476;28;20526;-80
2023/11/18 05:06:08;;;;;;;7.17;4.10;;;6.20;99.90;;;7.05;100.00;98892.34;5016974;28;20472;-80
2023/11/18 05:08:38;;;;;;;7.57;4.13;;;6.20;99.90;;;7.03;100.00;98882.13;5016692;28;20559;-80
2023/11/18 05:11:07;;;;;;;7.73;4.37;;;6.20;99.90;;;7.03;100.00;98878.69;5016203;28;20465;-81
2023/11/18 05:13:36;;;;;;;8.13;4.30;;;6.30;99.90;;;7.05;100.00;98874.16;5017735;28;20475;-80
2023/11/18 05:16:06;;;;;;;14.80;4.40;;;6.30;99.90;;;7.03;100.00;98866.50;5017090;28;20458;-80
2023/11/18 05:18:36;;;;;;;12.03;5.03;;;6.30;99.90;;;7.06;100.00;98868.00;5014619;28;20487;-79
2023/11/18 05:21:06;;;;;;;10.30;5.30;;;6.30;99.90;;;7.02;100.00;98867.47;5015370;28;20466;-80
2023/11/18 05:23:37;;;;;;;8.60;5.37;;;6.20;99.90;;;7.01;100.00;98865.03;5016636;28;20462;-80
2023/11/18 05:26:06;;;;;;;13.40;6.07;;;6.30;99.90;;;7.04;100.00;98862.13;5016195;28;20470;-79
2023/11/18 05:28:35;;;;;;;10.63;5.30;;;6.20;99.90;;;7.00;100.00;98863.38;5015788;28;20463;-80
2023/11/18 05:31:06;;;;;;;14.23;5.00;;;6.20;99.90;;;7.02;100.00;98864.03;5018003;28;20549;-79
2023/11/18 05:33:35;;;;;;;10.43;5.57;;;6.30;99.90;;;7.01;100.00;98862.44;5015310;28;20481;-79
2023/11/18 05:36:06;;;;;;;12.13;5.77;;;6.20;99.90;;;6.99;100.00;98857.34;5016641;28;20471;-80
2023/11/18 05:38:35;;;;;;;22.60;8.27;;;6.20;99.90;;;7.01;100.00;98862.44;5017082;28;20965;-80
2023/11/18 05:41:16;;;;;;;15.07;7.13;;;6.30;99.90;;;6.97;100.00;98864.50;5013925;28;20833;-80
2023/11/18 05:43:51;;;;;;;13.63;7.07;;;6.40;99.90;;;6.98;100.00;98854.88;5016503;28;20457;-80
2023/11/18 05:46:22;;;;;;;12.87;6.97;;;6.30;99.90;;;6.99;100.00;98846.97;5014176;28;20473;-80
2023/11/18 05:48:52;;;;;;;18.20;8.43;;;6.30;99.90;;;7.02;100.00;98853.63;5014382;28;20462;-80
2023/11/18 05:51:23;;;;;;;17.40;7.07;;;6.20;99.90;;;6.98;100.00;98844.50;5015866;28;20491;-79
2023/11/18 05:53:52;;;;;;;24.27;6.73;;;6.20;99.90;;;6.98;100.00;98849.69;5016003;28;20535;-80
2023/11/18 05:56:23;;;;;;;15.70;6.90;;;6.20;99.90;;;6.95;100.00;98850.81;5015953;28;20518;-80
2023/11/18 05:58:53;;;;;;;20.80;6.50;;;6.20;99.90;;;6.98;100.00;98849.69;5014756;28;21471;-80
2023/11/18 06:01:23;;;;;;;19.50;6.87;;;6.10;99.90;;;6.99;100.00;98843.53;5014138;28;20474;-80
2023/11/18 06:03:52;;;;;;;17.77;7.80;;;6.10;99.90;;;6.94;100.00;98841.34;5014197;28;20516;-80
2023/11/18 06:06:22;;;;;;;16.33;6.90;;;6.20;99.90;;;6.96;100.00;98842.06;5015847;28;20545;-79
2023/11/18 06:08:53;;;;;;;16.47;6.60;;;6.10;99.90;;;6.98;100.00;98839.28;5017492;28;20548;-80
2023/11/18 06:11:23;;;;;;;17.63;7.10;;;6.20;99.90;;;7.00;100.00;98833.00;5014186;28;21000;-79
2023/11/18 06:13:53;;;;;;;16.33;7.77;;;6.20;99.90;;;6.99;100.00;98828.75;5013962;28;20462;-80
2023/11/18 06:16:25;;;;;;;17.50;6.87;;;6.20;99.90;;;6.99;100.00;98820.13;5016514;28;20463;-80
2023/11/18 06:18:55;;;;;;;14.87;7.47;;;6.30;99.90;;;7.01;100.00;98824.22;5017062;28;20568;-81
2023/11/18 06:21:29;;;;;;;15.40;6.30;;;6.20;99.90;;;6.99;100.00;98815.75;5015708;28;20471;-79
2023/11/18 06:24:00;;;;;;;16.77;7.40;;;6.20;99.90;;;7.00;100.00;98820.00;5016559;28;20610;-79
2023/11/18 06:26:30;;;;;;;20.27;6.90;;;6.20;99.90;;;7.02;100.00;98825.03;5016158;28;20952;-78
2023/11/18 06:28:59;;;;;;;12.17;6.17;;;6.20;99.90;;;7.01;100.00;98826.03;5014452;28;20536;-79
2023/11/18 06:31:29;;;;;;;15.97;7.40;;;6.20;99.90;;;7.02;100.00;98825.03;5015183;28;20470;-79
2023/11/18 06:33:58;;;;;;;13.20;7.00;;;6.20;99.90;;;7.00;100.00;98819.19;5015583;28;20492;-78
2023/11/18 06:36:28;;;;;;;19.80;7.70;;;6.20;99.90;;;7.02;100.00;98825.03;5015710;28;20463;-80
2023/11/18 06:38:58;;;;;;;15.83;6.57;;;6.20;99.90;;;7.02;100.00;98830.25;5015309;28;20506;-80
2023/11/18 06:41:33;;;;;;;20.00;7.37;;;6.20;99.90;;;7.06;100.00;98824.63;5014645;28;20568;-80
2023/11/18 06:44:09;;;;;;;15.30;7.90;;;6.30;99.90;;;7.08;100.00;98830.47;5016236;28;20454;-80
2023/11/18 06:46:39;;;;;;;19.33;8.10;;;6.30;99.90;;;7.08;100.00;98825.28;5016602;28;20453;-80
2023/11/18 06:49:15;;;;;;;18.70;8.30;;;6.30;99.90;;;7.11;100.00;98828.56;5016693;28;20458;-80
2023/11/18 06:51:44;;;;;;;17.97;7.20;;;6.30;99.90;;;7.14;100.00;98825.66;5015267;28;20844;-80
2023/11/18 06:54:13;;;;;;;18.83;7.60;;;6.40;99.90;;;7.13;100.00;98830.06;5013488;28;20839;-80
2023/11/18 06:56:44;;;;;;;18.13;6.47;;;6.40;99.90;;;7.15;100.00;98830.72;5014954;28;20541;-77
2023/11/18 06:59:14;;;;;;;13.07;5.60;;;6.50;99.90;;;7.17;100.00;98823.59;5015573;28;20498;-80
2023/11/18 07:01:44;;;;;;;18.00;7.77;;;6.50;99.90;;;7.17;100.00;98818.41;5011938;28;20470;-78
2023/11/18 07:04:15;;;;;;;15.07;6.67;;;6.40;99.90;;;7.18;100.00;98825.25;5013885;28;20462;-80
2023/11/18 07:06:44;;;;;;;17.43;6.50;;;6.50;99.90;;;7.20;100.00;98823.31;5013325;28;20467;-79
2023/11/18 07:09:17;;;;;;;14.17;6.80;;;6.60;99.90;;;7.22;100.00;98820.56;5011137;28;20597;-79
2023/11/18 07:11:51;;;;;;;17.40;6.47;;;6.50;99.90;;;7.22;100.00;98821.34;5013824;28;20459;-78
2023/11/18 07:14:20;;;;;;;14.80;6.23;;;6.50;99.90;;;7.19;100.00;98826.84;5013543;28;20474;-80
2023/11/18 07:16:48;;;;;;;21.13;7.50;;;6.50;99.90;;;7.22;100.00;98826.56;5014753;28;20463;-80
2023/11/18 07:19:19;;;;;;;11.23;6.07;;;6.50;99.90;;;7.24;100.00;98829.84;5013436;28;20482;-80
2023/11/18 07:21:51;;;;;;;14.60;6.30;;;6.50;99.90;;;7.22;100.00;98842.16;5014450;28;20466;-80
2023/11/18 07:24:21;;;;;;;16.77;7.60;;;6.60;99.90;;;7.25;100.00;98847.09;5016191;28;20972;-80
2023/11/18 07:26:51;;;;;;;14.83;6.07;;;6.60;99.90;;;7.24;100.00;98840.25;5017758;28;20454;-79
2023/11/18 07:29:20;;;;;;;14.10;6.27;;;6.50;99.90;;;7.23;100.00;98846.41;5016821;28;20474;-80
2023/11/18 07:31:49;;;;;;;13.37;6.00;;;6.50;99.90;;;7.26;100.00;98845.28;5014178;28;20494;-80
2023/11/18 07:34:18;;;;;;;13.03;6.37;;;6.50;99.90;;;7.26;100.00;98838.31;5014073;28;20541;-80
2023/11/18 07:36:47;;;;;;;15.70;6.03;;;6.50;99.90;;;7.26;100.00;98832.28;5014957;28;20445;-79
2023/11/18 07:39:20;;;;;;;10.57;5.90;;;6.50;99.90;;;7.24;100.00;98845.47;5013990;28;20554;-80
2023/11/18 07:41:54;;;;;;;15.93;5.87;;;6.50;99.90;;;7.28;100.00;98844.19;5014946;28;21027;-79
2023/11/18 07:44:23;;;;;;;10.40;5.63;;;6.50;99.90;;;7.30;100.00;98839.66;5017534;28;20476;-79
2023/11/18 07:46:52;;;;;;;9.93;5.10;;;6.50;99.90;;;7.34;100.00;98830.59;5015247;28;20458;-79
2023/11/18 07:49:26;;;;;;;14.50;6.00;;;6.60;99.90;;;7.37;100.00;98825.09;5016555;28;20466;-78
2023/11/18 07:51:54;;;;;;;12.17;5.57;;;6.60;99.90;;;7.33;100.00;98823.75;5018985;28;20569;-78
2023/11/18 07:54:24;;;;;;;10.00;5.13;;;6.50;99.90;;;7.31;100.00;98824.88;5014316;28;20986;-78
2023/11/18 07:56:54;;;;;;;13.63;6.33;;;6.60;99.90;;;7.28;100.00;98828.59;5017950;28;20497;-79
2023/11/18 07:59:23;;;;;;;13.93;6.80;;;6.60;99.90;;;7.29;100.00;98832.03;5017024;28;20839;-78
2023/11/18 08:01:53;;;;;;;12.20;6.90;;;6.50;99.90;;;7.29;100.00;98827.59;5016511;28;20565;-78
2023/11/18 08:04:22;;;;;;;17.90;6.00;;;6.50;99.90;;;7.31;100.00;98830.91;5015385;28;20458;-78
2023/11/18 08:06:51;;;;;;;14.63;5.40;;;6.60;99.90;;;7.23;100.00;98832.59;5016480;28;20461;-76
2023/11/18 08:09:23;;;;;;;12.70;6.47;;;6.70;99.90;;;7.24;100.00;98835.06;5016505;28;20466;-79
2023/11/18 08:11:55;;;;;;;12.70;6.63;;;6.60;99.90;;;7.27;100.00;98824.34;5015947;28;20583;-78
2023/11/18 08:14:24;;;;;;;10.67;5.50;;;6.60;99.90;;;7.32;100.00;98822.13;5017137;28;20466;-79
2023/11/18 08:16:53;;;;;;;9.20;4.60;;;6.60;99.90;;;7.32;100.00;98809.13;5017451;28;20477;-79
2023/11/18 08:19:23;;;;;;;16.70;5.93;;;6.60;99.90;;;7.31;100.00;98814.47;5019373;28;20482;-78
2023/11/18 08:21:51;;;;;;;10.57;5.30;;;6.50;99.90;;;7.23;100.00;98803.97;5017927;28;20481;-79
2023/11/18 08:24:29;;;;;;;12.63;5.57;;;6.40;99.90;;;7.21;100.00;98803.31;5020696;28;20550;-79
2023/11/18 08:26:59;;;;;;;11.03;5.87;;;6.40;99.90;;;7.23;100.00;98801.38;5020988;28;20469;-79
2023/11/18 08:29:31;;;;;;;16.10;6.67;;;6.40;99.90;;;7.25;100.00;98802.06;5020845;28;20467;-79
2023/11/18 08:32:00;;;;;;;14.43;7.30;;;6.40;99.90;;;7.25;100.00;98805.47;5018458;28;20504;-79
2023/11/18 08:34:29;;;;;;;14.67;7.10;;;6.40;99.90;;;7.26;100.00;98811.47;5019000;28;20477;-79
2023/11/18 08:36:58;;;;;;;16.13;6.37;;;6.40;99.90;;;7.29;100.00;98806.81;5019670;28;20512;-79
2023/11/18 08:39:28;;;;;;;10.63;5.83;;;6.50;99.90;;;7.28;100.00;98794.78;5018438;28;20466;-79
2023/11/18 08:41:59;;;;;;;12.73;6.17;;;6.50;99.90;;;7.27;100.00;98803.53;5017001;28;20597;-78
2023/11/18 08:44:28;;;;;;;15.00;6.63;;;6.50;99.90;;;7.25;100.00;98808.09;5018409;28;20500;-78
2023/11/18 08:46:57;;;;;;;12.60;6.57;;;6.50;99.90;;;7.31;100.00;98815.28;5017245;28;21294;-78
2023/11/18 08:49:29;;;;;;;16.40;6.60;;;6.60;99.90;;;7.37;100.00;98809.50;5015066;28;20465;-77
2023/11/18 08:51:58;;;;;;;10.73;5.50;;;6.60;99.90;;;7.38;100.00;98815.53;5015000;28;20996;-77
2023/11/18 08:54:36;;;;;;;11.33;5.10;;;6.70;99.90;;;7.41;100.00;98826.44;5015898;28;20980;-77
2023/11/18 08:57:23;;;;;;;14.93;7.50;;;6.80;99.90;;;7.41;100.00;98823.84;5015715;28;20846;-76
2023/11/18 08:59:52;;;;;;;14.87;7.03;;;6.70;99.90;;;7.43;100.00;98821.91;5016016;28;20531;-77
2023/11/18 09:02:23;;;;;;;12.13;5.07;;;6.70;99.90;;;7.44;100.00;98828.75;5014099;28;21047;-77
2023/11/18 09:04:53;;;;;;;7.53;4.90;;;6.70;99.90;;;7.44;100.00;98826.16;5017099;28;20837;-76
2023/11/18 09:07:22;;;;;;;28.40;5.37;;;6.70;99.90;;;7.50;100.00;98835.97;5015887;28;20462;-76
2023/11/18 09:09:52;;;;;;;11.30;5.70;;;6.70;99.90;;;7.52;100.00;98831.44;5016156;28;20477;-77
2023/11/18 09:12:24;;;;;;;13.33;5.63;;;6.80;99.90;;;7.52;100.00;98831.44;5014924;28;20501;-77
2023/11/18 09:14:53;;;;;;;16.43;5.87;;;6.80;99.90;;;7.56;100.00;98830.19;5017324;28;20470;-76
2023/11/18 09:17:22;;;;;;;11.10;4.40;;;6.80;99.90;;;7.57;100.00;98826.59;5016751;28;20891;-76
2023/11/18 09:19:52;;;;;;;7.80;4.90;;;6.80;99.90;;;7.59;100.00;98832.47;5017097;28;21713;-76
2023/11/18 09:22:22;;;;;;;11.30;5.77;;;6.90;99.90;;;7.62;100.00;98836.56;5018174;28;20474;-76
2023/11/18 09:24:51;;;;;;;8.43;4.70;;;6.90;99.90;;;7.63;100.00;98840.81;5018367;28;21459;-76
2023/11/18 09:27:20;;;;;;;9.80;4.37;;;6.90;99.90;;;7.66;100.00;98831.88;5016738;28;20864;-75
2023/11/18 09:29:50;;;;;;;12.17;4.70;;;6.90;99.90;;;7.62;100.00;98823.56;5018807;28;20463;-76
2023/11/18 09:32:18;;;;;;;11.30;5.27;;;7.00;99.90;;;7.66;100.00;98829.28;5014806;28;20505;-76
2023/11/18 09:34:48;;;;;;;8.50;4.10;;;7.00;99.90;;;7.67;100.00;98828.31;5016287;28;20994;-76
2023/11/18 09:37:16;;;;;;;9.13;4.30;;;7.00;99.90;;;7.71;100.00;98827.03;5020165;28;20516;-77
2023/11/18 09:39:52;;;;;;;9.27;4.80;;;7.00;99.90;;;7.73;100.00;98825.13;5017937;28;20881;-77
2023/11/18 09:42:24;;;;;;;10.67;5.73;;;7.00;99.90;;;7.73;100.00;98822.50;5016674;28;20467;-77
2023/11/18 09:44:55;;;;;;;8.97;4.50;;;7.10;99.90;;;7.78;100.00;98820.25;5017830;28;20485;-77
2023/11/18 09:47:27;;;;;;;15.23;7.93;;;7.10;99.90;;;7.76;100.00;98830.00;5017823;28;20462;-77
2023/11/18 09:50:02;;;;;;;9.63;5.67;;;7.10;99.90;;;7.76;100.00;98820.44;5017764;28;20508;-76
2023/11/18 09:52:36;;;;;;;16.00;5.00;;;7.10;99.90;;;7.72;100.00;98824.28;5016467;28;20489;-76
2023/11/18 09:55:14;;;;;;;9.03;4.40;;;7.20;99.90;;;7.75;100.00;98823.16;5016879;28;20505;-75
2023/11/18 09:57:57;;;;;;;6.10;4.20;;;7.10;99.90;;;7.77;100.00;98821.25;5015603;28;20474;-76
2023/11/18 10:00:32;;;;;;;7.57;4.50;;;7.10;99.90;;;7.79;100.00;98812.31;5018159;28;21134;-76
2023/11/18 10:03:01;;;;;;;10.00;5.10;;;7.20;99.90;;;7.81;100.00;98833.78;5019173;28;21424;-76
2023/11/18 10:05:31;;;;;;;8.00;4.43;;;7.30;99.90;;;7.76;100.00;98836.03;5015241;28;20463;-76
2023/11/18 10:08:01;;;;;;;8.23;4.33;;;7.30;99.90;;;7.81;100.00;98827.78;5015670;28;20545;-76
2023/11/18 10:10:36;;;;;;;8.97;4.80;;;7.20;99.90;;;7.84;100.00;98825.72;5015753;28;20553;-76
2023/11/18 10:13:13;;;;;;;7.33;4.13;;;7.30;99.90;;;7.86;100.00;98823.75;5016098;28;20474;-77
2023/11/18 10:15:52;;;;;;;7.60;4.90;;;7.30;99.90;;;7.89;100.00;98826.06;5014730;28;20467;-77
2023/11/18 10:18:23;;;;;;;8.67;3.90;;;7.20;99.90;;;7.89;100.00;98820.84;5014244;28;20520;-77
2023/11/18 10:20:53;;;;;;;6.60;3.50;;;7.30;99.90;;;7.91;100.00;98821.50;5017768;28;20458;-76
2023/11/18 10:23:23;;;;;;;5.47;3.67;;;7.40;99.90;;;7.96;100.00;98801.06;5014785;28;20525;-75
2023/11/18 10:25:53;;;;;;;9.33;4.20;;;7.30;99.90;;;7.97;100.00;98799.28;5014303;28;21509;-76
2023/11/18 10:28:28;;;;;;;10.73;4.93;;;7.40;99.90;;;8.01;100.00;98792.78;5016712;28;20463;-76
2023/11/18 10:31:03;;;;;;;5.90;3.80;;;7.40;99.90;;;8.01;100.00;98795.41;5014923;28;20461;-77
2023/11/18 10:33:32;;;;;;;10.93;4.03;;;7.50;99.90;;;8.03;100.00;98796.88;5013034;28;20533;-77
2023/11/18 10:36:04;;;;;;;6.37;3.60;;;7.40;99.90;;;8.06;100.00;98790.53;5014500;28;20482;-77